Time;durP1;ratioP1;P1;durP2;ratioP2;P2;SDS_P1;SDS_P2;PMS_P1;PMS_P2;Temp;Humidity;BMP_temperature;BMP_pressure;BME280_temperature;BME280_humidity;BME280_pressure;Samples;Min_cycle;Max_cycle;Signal;HPM_P1;HPM_P2
2022/05/21 00:01:21;;;;;;;;;;;;;;;21.21;46.80;101786.63;7283010;19;151753;-56
2022/05/21 00:03:48;;;;;;;;;;;;;;;21.19;47.08;101789.72;7287367;19;152946;-56
2022/05/21 00:06:15;;;;;;;;;;;;;;;21.19;47.14;101788.88;7284930;19;151851;-56
2022/05/21 00:08:41;;;;;;;;;;;;;;;21.19;47.37;101792.50;7287889;19;152943;-57
2022/05/21 00:11:08;;;;;;;;;;;;;;;21.19;47.72;101809.38;7285693;19;154110;-56
2022/05/21 00:13:35;;;;;;;;;;;;;;;21.26;47.39;101803.41;7293738;19;151736;-56
2022/05/21 00:16:02;;;;;;;;;;;;;;;21.19;47.78;101809.38;7284816;19;154124;-56
2022/05/21 00:18:29;;;;;;;;;;;;;;;21.22;47.73;101803.16;7287149;19;151772;-56
2022/05/21 00:20:56;;;;;;;;;;;;;;;21.18;47.37;101802.06;7288607;19;152975;-56
2022/05/21 00:23:25;;;;;;;;;;;;;;;21.20;47.87;101798.97;7284015;19;154136;-56
2022/05/21 00:25:57;;;;;;;;;;;;;;;21.20;47.74;101796.16;7286657;19;151746;-56
2022/05/21 00:28:27;;;;;;;;;;;;;;;21.18;47.65;101802.06;7284676;19;153452;-56
2022/05/21 00:30:55;;;;;;;;;;;;;;;21.17;47.81;101808.81;7286197;19;153256;-56
2022/05/21 00:33:22;;;;;;;;;;;;;;;21.18;48.15;101807.69;7295029;19;151856;-56
2022/05/21 00:35:49;;;;;;;;;;;;;;;21.18;48.25;101809.66;7285161;19;152202;-56
2022/05/21 00:38:15;;;;;;;;;;;;;;;21.19;48.16;101800.94;7286914;19;151969;-56
2022/05/21 00:40:43;;;;;;;;;;;;;;;21.17;48.12;101796.72;7285755;19;152628;-56
2022/05/21 00:43:20;;;;;;;;;;;;;;;21.22;48.32;101799.50;7284237;19;153372;-56
2022/05/21 00:45:47;;;;;;;;;;;;;;;21.21;48.05;101800.66;7285011;19;151637;-56
2022/05/21 00:48:13;;;;;;;;;;;;;;;21.25;48.42;101799.78;7285718;19;153469;-56
2022/05/21 00:50:41;;;;;;;;;;;;;;;21.25;48.58;101793.31;7286503;19;153265;-56
2022/05/21 00:53:10;;;;;;;;;;;;;;;21.21;48.11;101800.66;7286034;19;151949;-56
2022/05/21 00:55:37;;;;;;;;;;;;;;;21.21;48.42;101793.03;7292201;19;152969;-56
2022/05/21 01:00:42;;;;;;;;;;;;;;;21.18;48.37;101806.84;7286553;19;152662;-56
2022/05/21 01:03:13;;;;;;;;;;;;;;;21.16;48.68;101817.56;7279053;19;153652;-56
2022/05/21 01:05:39;;;;;;;;;;;;;;;21.16;48.61;101809.13;7286121;19;152049;-56
2022/05/21 01:08:07;;;;;;;;;;;;;;;21.17;48.80;101810.78;7283050;19;153250;-56
2022/05/21 01:10:36;;;;;;;;;;;;;;;21.17;49.20;101816.41;7284231;19;153460;-56
2022/05/21 01:13:06;;;;;;;;;;;;;;;21.16;49.11;101817.56;7286057;19;151964;-56
2022/05/21 01:15:36;;;;;;;;;;;;;;;21.17;48.85;101822.03;7281850;19;152172;-56
2022/05/21 01:18:06;;;;;;;;;;;;;;;21.16;48.84;101818.41;7288652;19;152022;-56
2022/05/21 01:20:35;;;;;;;;;;;;;;;21.15;49.22;101816.72;7286506;19;153347;-56
2022/05/21 01:23:02;;;;;;;;;;;;;;;21.15;49.63;101819.53;7283487;19;154129;-56
2022/05/21 01:25:31;;;;;;;;;;;;;;;21.16;49.80;101821.22;7284501;19;152068;-56
2022/05/21 01:27:58;;;;;;;;;;;;;;;21.16;49.76;101818.41;7279879;19;152586;-56
2022/05/21 01:30:33;;;;;;;;;;;;;;;21.16;49.48;101820.38;7282977;19;153799;-56
2022/05/21 01:33:04;;;;;;;;;;;;;;;21.16;49.74;101821.22;7284044;19;151941;-56
2022/05/21 01:35:31;;;;;;;;;;;;;;;21.16;49.53;101826.84;7283354;19;153720;-56
2022/05/21 01:37:58;;;;;;;;;;;;;;;21.15;49.51;101818.69;7284277;19;153313;-56
2022/05/21 01:40:25;;;;;;;;;;;;;;;21.15;49.62;101824.31;7292491;19;151866;-56
2022/05/21 01:45:29;;;;;;;;;;;;;;;21.15;49.85;101819.53;7283112;19;152028;-56
2022/05/21 01:47:56;;;;;;;;;;;;;;;21.15;50.00;101813.06;7281715;19;153634;-56
2022/05/21 01:50:22;;;;;;;;;;;;;;;21.18;49.75;101812.47;7284105;19;153336;-56
2022/05/21 01:52:49;;;;;;;;;;;;;;;21.16;49.83;101818.41;7283984;19;151738;-56
2022/05/21 01:55:16;;;;;;;;;;;;;;;21.16;49.76;101804.34;7284541;19;153317;-56
2022/05/21 01:57:43;;;;;;;;;;;;;;;21.16;49.78;101806.31;7287176;19;154077;-56
2022/05/21 02:00:10;;;;;;;;;;;;;;;21.17;50.10;101805.16;7290037;19;152067;-56
2022/05/21 02:02:37;;;;;;;;;;;;;;;21.18;49.72;101810.50;7294579;19;152698;-56
2022/05/21 02:07:32;;;;;;;;;;;;;;;21.18;49.94;101809.66;7288354;19;153208;-56
2022/05/21 02:10:00;;;;;;;;;;;;;;;21.16;50.29;101809.13;7290375;19;153646;-57
2022/05/21 02:12:27;;;;;;;;;;;;;;;21.17;49.78;101807.97;7290636;19;151884;-56
2022/05/21 02:14:55;;;;;;;;;;;;;;;21.16;49.92;101803.50;7289842;19;153403;-56
2022/05/21 02:17:22;;;;;;;;;;;;;;;21.16;49.97;101798.72;7287647;19;154270;-56
2022/05/21 02:19:49;;;;;;;;;;;;;;;21.14;49.98;101808.56;7287866;19;152295;-57
2022/05/21 02:22:18;;;;;;;;;;;;;;;21.13;49.99;101807.72;7290751;19;153324;-56
2022/05/21 02:24:45;;;;;;;;;;;;;;;21.13;49.97;101806.88;7294931;19;152779;-56
2022/05/21 02:27:12;;;;;;;;;;;;;;;21.14;49.93;101802.94;7288376;19;151825;-56
2022/05/21 02:29:40;;;;;;;;;;;;;;;21.13;49.81;101810.53;7287319;19;152380;-56
2022/05/21 02:32:07;;;;;;;;;;;;;;;21.14;49.96;101815.03;7288402;19;152154;-56
2022/05/21 02:34:34;;;;;;;;;;;;;;;21.14;50.06;101812.22;7288666;19;153384;-56
2022/05/21 02:39:37;;;;;;;;;;;;;;;21.15;50.01;101827.13;7290215;19;151718;-57
2022/05/21 02:42:42;;;;;;;;;;;;;;;21.14;50.41;101814.19;7289748;19;153248;-56
2022/05/21 02:44:51;;;;;;;;;;;;;;;21.15;49.78;101808.28;7292729;19;151926;-57
2022/05/21 02:47:18;;;;;;;;;;;;;;;21.14;49.48;101820.66;7288713;19;152982;-56
2022/05/21 02:49:45;;;;;;;;;;;;;;;21.16;50.02;101814.75;7288426;19;153438;-56
2022/05/21 02:52:11;;;;;;;;;;;;;;;21.13;49.81;101813.34;7290380;19;151996;-57
2022/05/21 02:54:38;;;;;;;;;;;;;;;21.12;49.92;101817.25;7289131;19;154138;-56
2022/05/21 02:57:07;;;;;;;;;;;;;;;21.10;49.97;101825.16;7287317;19;153398;-56
2022/05/21 02:59:33;;;;;;;;;;;;;;;21.11;50.00;101828.81;7284607;19;151945;-58
2022/05/21 03:02:00;;;;;;;;;;;;;;;21.07;49.43;101822.94;7289064;19;152913;-57
2022/05/21 03:04:27;;;;;;;;;;;;;;;21.08;49.21;101843.41;7284020;19;154460;-57
2022/05/21 03:06:54;;;;;;;;;;;;;;;21.06;49.01;101842.88;7293563;19;151492;-56
2022/05/21 03:11:58;;;;;;;;;;;;;;;21.04;48.63;101842.31;7288365;19;151560;-57
2022/05/21 03:14:25;;;;;;;;;;;;;;;21.01;48.52;101845.72;7289426;19;153000;-56
2022/05/21 03:16:59;;;;;;;;;;;;;;;21.04;48.39;101845.13;7286164;19;154156;-57
2022/05/21 03:19:28;;;;;;;;;;;;;;;21.02;49.29;101842.63;7289668;19;151773;-56
2022/05/21 03:21:56;;;;;;;;;;;;;;;21.00;49.67;101844.88;7289221;19;152814;-56
2022/05/21 03:24:23;;;;;;;;;;;;;;;21.02;49.20;101847.41;7286591;19;153355;-56
2022/05/21 03:26:50;;;;;;;;;;;;;;;21.00;49.58;101860.88;7288574;19;151740;-56
2022/05/21 03:29:17;;;;;;;;;;;;;;;21.00;49.68;101853.31;7294646;19;152392;-56
2022/05/21 03:31:44;;;;;;;;;;;;;;;21.00;49.59;101853.31;7289192;19;151923;-56
2022/05/21 03:34:10;;;;;;;;;;;;;;;21.00;49.90;101850.50;7288925;19;152791;-56
2022/05/21 03:36:37;;;;;;;;;;;;;;;21.02;49.58;101855.84;7288566;19;153642;-56
2022/05/21 03:39:03;;;;;;;;;;;;;;;21.00;49.90;101849.66;7289226;19;151778;-56
2022/05/21 03:41:30;;;;;;;;;;;;;;;21.00;49.98;101852.47;7287945;19;152818;-56
2022/05/21 03:43:58;;;;;;;;;;;;;;;21.00;49.58;101855.25;7287022;19;154022;-56
2022/05/21 03:46:25;;;;;;;;;;;;;;;21.00;50.01;101850.50;7287881;19;152171;-56
2022/05/21 03:48:52;;;;;;;;;;;;;;;21.01;49.71;101859.75;7288561;19;152630;-56
2022/05/21 03:51:18;;;;;;;;;;;;;;;20.99;49.77;101857.22;7294282;19;154709;-57
2022/05/21 03:53:45;;;;;;;;;;;;;;;20.99;49.98;101850.78;7288599;19;153252;-56
2022/05/21 03:56:12;;;;;;;;;;;;;;;20.98;50.04;101847.16;7285567;19;153231;-56
2022/05/21 03:58:39;;;;;;;;;;;;;;;20.98;49.79;101849.13;7285914;19;152046;-57
2022/05/21 04:01:06;;;;;;;;;;;;;;;20.98;49.97;101846.31;7287682;19;152542;-56
2022/05/21 04:03:35;;;;;;;;;;;;;;;20.99;50.20;101851.63;7285115;19;152367;-56
2022/05/21 04:06:02;;;;;;;;;;;;;;;20.98;49.98;101849.13;7288859;19;152125;-56
2022/05/21 04:08:28;;;;;;;;;;;;;;;20.96;50.47;101855.00;7284921;19;153037;-56
2022/05/21 04:10:55;;;;;;;;;;;;;;;20.98;50.42;101849.13;7287547;19;153820;-56
2022/05/21 04:13:22;;;;;;;;;;;;;;;20.97;50.45;101853.06;7296447;19;152114;-56
2022/05/21 04:15:49;;;;;;;;;;;;;;;20.94;50.42;101851.63;7284564;19;153900;-56
2022/05/21 04:18:17;;;;;;;;;;;;;;;20.96;50.06;101843.78;7287298;19;151767;-56
2022/05/21 04:20:44;;;;;;;;;;;;;;;20.98;50.40;101840.69;7285458;19;153753;-56
2022/05/21 04:23:11;;;;;;;;;;;;;;;20.96;50.55;101838.16;7286297;19;154015;-56
2022/05/21 04:25:37;;;;;;;;;;;;;;;20.96;50.59;101832.53;7287859;19;151632;-56
2022/05/21 04:28:05;;;;;;;;;;;;;;;20.98;50.57;101847.16;7285314;19;153330;-56
2022/05/21 04:30:33;;;;;;;;;;;;;;;20.96;50.55;101846.59;7286911;19;154136;-56
2022/05/21 04:33:00;;;;;;;;;;;;;;;20.97;50.55;101850.25;7283143;19;152355;-57
2022/05/21 04:36:17;;;;;;;;;;;;;;;20.98;50.36;101847.16;7293412;19;153285;-57
2022/05/21 04:38:14;;;;;;;;;;;;;;;20.98;50.51;101837.88;7286116;19;151866;-56
2022/05/21 04:40:42;;;;;;;;;;;;;;;20.96;50.99;101846.59;7285929;19;152711;-56
2022/05/21 04:43:09;;;;;;;;;;;;;;;20.95;51.06;101852.47;7283132;19;154315;-56
2022/05/21 04:45:36;;;;;;;;;;;;;;;20.95;50.85;101850.50;7283901;19;152079;-56
2022/05/21 04:48:04;;;;;;;;;;;;;;;20.96;50.69;101856.97;7284272;19;153332;-57
2022/05/21 04:50:31;;;;;;;;;;;;;;;20.94;51.08;101862.88;7285717;19;153233;-56
2022/05/21 04:52:58;;;;;;;;;;;;;;;20.94;50.69;101870.50;7283469;19;151663;-57
2022/05/21 04:55:25;;;;;;;;;;;;;;;20.94;50.74;101870.50;7293157;19;153485;-56
2022/05/21 04:57:51;;;;;;;;;;;;;;;20.93;51.23;101872.47;7285914;19;151712;-56
2022/05/21 05:00:19;;;;;;;;;;;;;;;20.92;50.86;101881.16;7286062;19;153377;-56
2022/05/21 05:02:46;;;;;;;;;;;;;;;20.94;50.83;101890.16;7284355;19;153987;-56
2022/05/21 05:05:13;;;;;;;;;;;;;;;20.92;51.08;101893.25;7286593;19;151954;-56
2022/05/21 05:07:40;;;;;;;;;;;;;;;20.95;51.29;101891.81;7283865;19;153416;-56
2022/05/21 05:10:07;;;;;;;;;;;;;;;20.90;50.91;101886.22;7285337;19;153974;-56
2022/05/21 05:12:35;;;;;;;;;;;;;;;20.89;51.20;101881.75;7285387;19;152080;-56
2022/05/21 05:15:03;;;;;;;;;;;;;;;20.90;51.13;101887.06;7286946;19;152638;-56
2022/05/21 05:17:30;;;;;;;;;;;;;;;20.91;50.97;101885.09;7292132;19;154127;-56
2022/05/21 05:19:59;;;;;;;;;;;;;;;20.91;50.83;101899.13;7284848;19;152700;-56
2022/05/21 05:22:26;;;;;;;;;;;;;;;20.90;50.91;101906.72;7284285;19;153127;-56
2022/05/21 05:24:53;;;;;;;;;;;;;;;20.90;51.26;101895.50;7285176;19;152068;-56
2022/05/21 05:27:20;;;;;;;;;;;;;;;20.92;51.01;101903.63;7283210;19;154233;-56
2022/05/21 05:29:47;;;;;;;;;;;;;;;20.95;51.44;101897.44;7281819;19;154284;-56
2022/05/21 05:32:13;;;;;;;;;;;;;;;20.92;51.27;101903.63;7291076;19;151914;-56
2022/05/21 05:34:40;;;;;;;;;;;;;;;20.91;51.27;101901.94;7291966;19;153475;-56
2022/05/21 05:37:07;;;;;;;;;;;;;;;20.91;51.14;101916.00;7291336;19;154413;-56
2022/05/21 05:39:35;;;;;;;;;;;;;;;20.89;51.10;101927.53;7299099;19;152264;-56
2022/05/21 05:42:04;;;;;;;;;;;;;;;20.91;51.13;101916.00;7289006;19;154253;-56
2022/05/21 05:44:31;;;;;;;;;;;;;;;20.88;51.00;101910.97;7291387;19;151829;-57
2022/05/21 05:46:58;;;;;;;;;;;;;;;20.90;50.97;101925.53;7289821;19;153478;-56
2022/05/21 05:49:25;;;;;;;;;;;;;;;20.90;51.27;101911.50;7288115;19;153248;-56
2022/05/21 05:51:52;;;;;;;;;;;;;;;20.90;51.10;101917.97;7289126;19;152056;-56
2022/05/21 05:54:18;;;;;;;;;;;;;;;20.90;51.22;101917.97;7291291;19;153793;-56
2022/05/21 05:56:45;;;;;;;;;;;;;;;20.90;51.03;101917.97;7289947;19;153154;-57
2022/05/21 06:01:48;;;;;;;;;;;;;;;20.89;51.37;101926.69;7296445;19;153262;-56
2022/05/21 06:04:16;;;;;;;;;;;;;;;20.89;51.21;101918.28;7289090;19;152079;-56
2022/05/21 06:06:43;;;;;;;;;;;;;;;20.92;51.24;101926.13;7290425;19;152774;-56
2022/05/21 06:09:10;;;;;;;;;;;;;;;20.90;51.24;101923.56;7285715;19;152285;-56
2022/05/21 06:11:38;;;;;;;;;;;;;;;20.88;51.27;101920.22;7291379;19;151695;-56
2022/05/21 06:14:05;;;;;;;;;;;;;;;20.88;51.38;101925.00;7289195;19;153501;-56
2022/05/21 06:16:32;;;;;;;;;;;;;;;20.89;51.48;101923.88;7287310;19;154122;-56
2022/05/21 06:18:59;;;;;;;;;;;;;;;20.90;51.25;101936.78;7290470;19;151988;-56
2022/05/21 06:21:25;;;;;;;;;;;;;;;20.87;51.39;101929.78;7290374;19;153502;-56
2022/05/21 06:23:53;;;;;;;;;;;;;;;20.88;51.62;101933.44;7296975;19;154315;-56
2022/05/21 06:26:20;;;;;;;;;;;;;;;20.87;51.27;101926.97;7290523;19;152666;-56
2022/05/21 06:28:48;;;;;;;;;;;;;;;20.88;51.36;101920.22;7288362;19;153523;-56
2022/05/21 06:31:16;;;;;;;;;;;;;;;20.85;51.31;101926.41;7289333;19;151955;-56
2022/05/21 06:33:43;;;;;;;;;;;;;;;20.89;51.25;101921.09;7289809;19;153615;-56
2022/05/21 06:36:12;;;;;;;;;;;;;;;20.88;51.47;101925.00;7288776;19;154399;-56
2022/05/21 06:38:39;;;;;;;;;;;;;;;20.85;51.37;101927.25;7289364;19;151666;-56
2022/05/21 06:41:07;;;;;;;;;;;;;;;20.86;51.19;101928.94;7286307;19;151971;-56
2022/05/21 06:43:34;;;;;;;;;;;;;;;20.85;51.48;101932.88;7286276;19;153382;-56
2022/05/21 06:46:01;;;;;;;;;;;;;;;20.85;51.74;101937.63;7297909;19;151593;-56
2022/05/21 06:48:28;;;;;;;;;;;;;;;20.85;51.32;101935.69;7285383;19;154312;-56
2022/05/21 06:50:55;;;;;;;;;;;;;;;20.86;51.36;101936.53;7290050;19;151971;-57
2022/05/21 06:53:22;;;;;;;;;;;;;;;20.86;51.32;101945.78;7287538;19;153595;-56
2022/05/21 06:55:49;;;;;;;;;;;;;;;20.86;51.49;101942.97;7287949;19;153988;-56
2022/05/21 06:58:16;;;;;;;;;;;;;;;20.86;51.74;101945.78;7288563;19;151707;-56
2022/05/21 07:00:43;;;;;;;;;;;;;;;20.87;51.36;101952.25;7289103;19;152866;-56
2022/05/21 07:03:10;;;;;;;;;;;;;;;20.84;51.19;101950.03;7286333;19;154222;-56
2022/05/21 07:08:19;;;;;;;;;;;;;;;20.86;51.30;101964.63;7288331;19;153236;-57
2022/05/21 07:10:46;;;;;;;;;;;;;;;20.89;51.32;101966.88;7288731;19;151746;-56
2022/05/21 07:13:13;;;;;;;;;;;;;;;20.86;51.35;101971.06;7289429;19;153265;-56
2022/05/21 07:15:40;;;;;;;;;;;;;;;20.86;51.63;101975.84;7285763;19;153291;-56
2022/05/21 07:18:07;;;;;;;;;;;;;;;20.85;51.83;101966.56;7288906;19;151907;-56
2022/05/21 07:20:34;;;;;;;;;;;;;;;20.86;51.85;101973.03;7289214;19;153211;-56
2022/05/21 07:23:01;;;;;;;;;;;;;;;20.87;51.59;101974.72;7285131;19;154014;-56
2022/05/21 07:25:29;;;;;;;;;;;;;;;20.85;51.43;101966.56;7289642;19;151394;-56
2022/05/21 07:27:57;;;;;;;;;;;;;;;20.86;51.50;101956.19;7292950;19;153492;-56
2022/05/21 07:30:24;;;;;;;;;;;;;;;20.84;51.97;101956.50;7287086;19;151777;-56
2022/05/21 07:32:55;;;;;;;;;;;;;;;20.85;51.85;101968.53;7286352;19;152077;-56
2022/05/21 07:35:23;;;;;;;;;;;;;;;20.84;51.91;101962.13;7286860;19;157046;-56
2022/05/21 07:37:50;;;;;;;;;;;;;;;20.84;51.84;101959.31;7286075;19;152175;-56
2022/05/21 07:40:18;;;;;;;;;;;;;;;20.83;51.81;101965.19;7289145;19;153395;-56
2022/05/21 07:42:45;;;;;;;;;;;;;;;20.86;52.05;101971.06;7285069;19;154182;-56
2022/05/21 07:45:13;;;;;;;;;;;;;;;20.84;51.68;101976.16;7285890;19;152480;-56
2022/05/21 07:47:40;;;;;;;;;;;;;;;20.85;51.71;101976.97;7287790;19;152502;-56
2022/05/21 07:50:08;;;;;;;;;;;;;;;20.85;51.66;101974.16;7290143;19;154066;-56
2022/05/21 07:52:34;;;;;;;;;;;;;;;20.85;51.79;101960.97;7288969;19;153415;-56
2022/05/21 07:55:02;;;;;;;;;;;;;;;20.85;51.63;101966.56;7287590;19;153880;-56
2022/05/21 07:57:29;;;;;;;;;;;;;;;20.86;51.80;101973.88;7287436;19;152159;-56
2022/05/21 07:59:56;;;;;;;;;;;;;;;20.84;51.59;101964.91;7288355;19;152575;-56
2022/05/21 08:02:23;;;;;;;;;;;;;;;20.88;51.72;101969.94;7286054;19;153462;-56
2022/05/21 08:04:50;;;;;;;;;;;;;;;20.93;51.62;101967.97;7286735;19;151866;-56
2022/05/21 08:07:16;;;;;;;;;;;;;;;21.01;51.40;101972.16;7286960;19;152631;-56
2022/05/21 08:09:43;;;;;;;;;;;;;;;20.99;51.51;101964.00;7278524;19;154187;-56
2022/05/21 08:12:14;;;;;;;;;;;;;;;21.01;51.95;101966.53;7295432;19;152080;-57
2022/05/21 08:14:46;;;;;;;;;;;;;;;21.04;52.09;101963.13;7279584;19;154249;-56
2022/05/21 08:17:13;;;;;;;;;;;;;;;21.11;52.09;101960.88;7287122;19;151797;-57
2022/05/21 08:19:43;;;;;;;;;;;;;;;21.17;52.11;101963.38;7288463;19;152829;-56
2022/05/21 08:27:17;;;;;;;;;;;;;;;21.42;51.27;101948.38;7286069;19;153498;-56
2022/05/21 08:29:43;;;;;;;;;;;;;;;21.50;51.38;101952.53;7284138;19;153020;-56
2022/05/21 08:32:13;;;;;;;;;;;;;;;21.58;50.71;101949.09;7287870;19;151747;-56
2022/05/21 08:34:40;;;;;;;;;;;;;;;21.67;50.64;101955.78;7293005;19;153623;-56
2022/05/21 08:37:07;;;;;;;;;;;;;;;21.72;50.07;101962.22;7287570;19;151962;-57
2022/05/21 08:39:36;;;;;;;;;;;;;;;21.75;50.35;101955.19;7286687;19;153394;-57
2022/05/21 08:42:08;;;;;;;;;;;;;;;21.80;50.16;101957.97;7279848;19;152141;-58
2022/05/21 08:44:55;;;;;;;;;;;;;;;21.86;49.66;101961.56;7283531;19;152095;-58
2022/05/21 08:47:26;;;;;;;;;;;;;;;21.89;48.88;101963.81;7282494;19;152510;-58
2022/05/21 08:49:59;;;;;;;;;;;;;;;21.93;48.57;101964.94;7281347;19;153390;-58
2022/05/21 08:52:37;;;;;;;;;;;;;;;21.97;48.86;101963.22;7284123;19;151915;-57
2022/05/21 08:55:08;;;;;;;;;;;;;;;22.01;48.39;101958.69;7283769;19;152877;-57
2022/05/21 08:57:46;;;;;;;;;;;;;;;22.04;48.29;101958.94;7289673;19;151784;-58
2022/05/21 09:00:16;;;;;;;;;;;;;;;22.06;48.26;101958.63;7282025;19;153826;-58
2022/05/21 09:02:43;;;;;;;;;;;;;;;22.08;47.77;101959.16;7282279;19;152717;-57
2022/05/21 09:05:13;;;;;;;;;;;;;;;22.10;47.39;101960.56;7283096;19;151660;-58
2022/05/21 09:07:48;;;;;;;;;;;;;;;22.13;47.53;101950.69;7283748;19;152771;-58
2022/05/21 09:10:18;;;;;;;;;;;;;;;22.25;47.01;101947.50;7279697;19;152491;-58
2022/05/21 09:12:52;;;;;;;;;;;;;;;22.00;43.73;101955.03;7285894;19;152073;-57
2022/05/21 09:16:54;;;;;;;;;;;;;;;21.81;43.11;101958.78;7284998;19;153298;-57
2022/05/21 09:18:09;;;;;;;;;;;;;;;21.60;42.81;101953.31;7290690;19;153598;-57
2022/05/21 09:20:39;;;;;;;;;;;;;;;21.67;43.69;101945.38;7283363;19;151926;-59
2022/05/21 09:23:07;;;;;;;;;;;;;;;21.93;44.58;101939.63;7281429;19;152419;-57
2022/05/21 09:25:34;;;;;;;;;;;;;;;21.99;44.40;101933.63;7285756;19;152067;-57
2022/05/21 09:28:04;;;;;;;;;;;;;;;22.05;43.66;101937.25;7282424;19;153552;-58
2022/05/21 09:30:32;;;;;;;;;;;;;;;21.98;44.23;101940.41;7281044;19;152421;-58
2022/05/21 09:33:00;;;;;;;;;;;;;;;22.02;43.78;101927.44;7283294;19;151790;-57
2022/05/21 09:35:29;;;;;;;;;;;;;;;22.04;44.32;101936.41;7285267;19;153400;-57
2022/05/21 09:38:10;;;;;;;;;;;;;;;22.08;44.13;101928.22;7283401;19;152062;-57
2022/05/21 09:40:37;;;;;;;;;;;;;;;22.06;44.24;101922.06;7290701;19;151723;-57
2022/05/21 09:45:47;;;;;;;;;;;;;;;22.14;43.99;101915.78;7285010;19;151805;-56
2022/05/21 09:48:16;;;;;;;;;;;;;;;22.15;44.03;101918.31;7283048;19;152242;-57
2022/05/21 09:50:44;;;;;;;;;;;;;;;22.17;44.42;101921.66;7280123;19;153471;-57
2022/05/21 09:53:22;;;;;;;;;;;;;;;22.18;44.04;101920.53;7284171;19;151722;-57
2022/05/21 09:56:00;;;;;;;;;;;;;;;22.18;43.97;101917.72;7284775;19;152673;-57
2022/05/21 09:58:28;;;;;;;;;;;;;;;22.21;44.13;101930.38;7277560;19;154051;-57
2022/05/21 10:00:57;;;;;;;;;;;;;;;22.24;43.87;101926.09;7283994;19;151777;-57
2022/05/21 10:03:34;;;;;;;;;;;;;;;22.25;43.94;101939.91;7291148;19;153423;-57
2022/05/21 10:06:03;;;;;;;;;;;;;;;22.25;43.46;101928.63;7283850;19;151812;-56
2022/05/21 10:11:23;;;;;;;;;;;;;;;22.27;43.86;101931.97;7280108;19;154220;-57
2022/05/21 10:13:52;;;;;;;;;;;;;;;22.28;43.45;101936.47;7284223;19;151681;-57
2022/05/21 10:16:28;;;;;;;;;;;;;;;22.27;43.62;101926.34;7284461;19;152681;-57
2022/05/21 10:18:56;;;;;;;;;;;;;;;22.28;43.88;101925.22;7283285;19;154248;-57
2022/05/21 10:21:35;;;;;;;;;;;;;;;22.32;43.87;101914.19;7289829;19;151812;-57
2022/05/21 10:24:07;;;;;;;;;;;;;;;22.35;43.79;101916.44;7289301;19;153325;-56
2022/05/21 10:26:48;;;;;;;;;;;;;;;22.39;43.93;101920.34;7297073;19;154178;-57
2022/05/21 10:29:16;;;;;;;;;;;;;;;22.43;44.43;101927.88;7289477;19;152772;-57
2022/05/21 10:31:45;;;;;;;;;;;;;;;22.46;44.03;101918.00;7289866;19;152507;-57
2022/05/21 10:34:24;;;;;;;;;;;;;;;22.49;43.94;101915.41;7287144;19;152215;-57
2022/05/21 10:37:05;;;;;;;;;;;;;;;22.48;44.15;101912.91;7290229;19;152228;-56
2022/05/21 10:39:43;;;;;;;;;;;;;;;22.52;44.29;101900.75;7289067;19;152800;-56
2022/05/21 10:42:17;;;;;;;;;;;;;;;22.55;44.21;101905.78;7290669;19;151866;-57
2022/05/21 10:44:54;;;;;;;;;;;;;;;22.57;44.18;101905.50;7289386;19;153574;-57
2022/05/21 10:47:30;;;;;;;;;;;;;;;22.57;44.15;101902.66;7288567;19;154496;-57
2022/05/21 10:50:10;;;;;;;;;;;;;;;22.60;44.32;101899.25;7295145;19;152045;-57
2022/05/21 10:52:47;;;;;;;;;;;;;;;22.59;44.28;101891.94;7286660;19;153447;-57
2022/05/21 10:55:15;;;;;;;;;;;;;;;22.61;43.85;101900.94;7287343;19;151866;-57
2022/05/21 10:57:52;;;;;;;;;;;;;;;22.63;44.01;101907.94;7288673;19;153387;-56
2022/05/21 11:00:25;;;;;;;;;;;;;;;22.65;44.03;101898.34;7287490;19;154218;-57
2022/05/21 11:03:02;;;;;;;;;;;;;;;22.74;43.85;101897.41;7288900;19;151849;-57
2022/05/21 11:05:29;;;;;;;;;;;;;;;22.61;44.07;101906.56;7288488;19;152695;-57
2022/05/21 11:08:05;;;;;;;;;;;;;;;22.56;43.87;101903.81;7287641;19;154260;-57
2022/05/21 11:10:41;;;;;;;;;;;;;;;22.57;43.88;101897.03;7294807;19;151700;-58
2022/05/21 11:13:20;;;;;;;;;;;;;;;22.52;44.15;101897.09;7284733;19;153891;-57
2022/05/21 11:16:09;;;;;;;;;;;;;;;22.57;44.07;101905.50;7288685;19;152937;-58
2022/05/21 11:18:38;;;;;;;;;;;;;;;22.54;43.51;101901.28;7287861;19;153323;-57
2022/05/21 11:21:11;;;;;;;;;;;;;;;22.53;44.03;101905.22;7287156;19;154128;-57
2022/05/21 11:23:56;;;;;;;;;;;;;;;22.50;43.94;101899.34;7283921;19;152118;-57
2022/05/21 11:26:29;;;;;;;;;;;;;;;22.55;43.88;101894.50;7288411;19;152440;-58
2022/05/21 11:29:00;;;;;;;;;;;;;;;22.54;43.61;101898.47;7285642;19;153771;-57
2022/05/21 11:37:21;;;;;;;;;;;;;;;22.42;43.09;101883.97;7288547;19;152206;-57
2022/05/21 11:39:54;;;;;;;;;;;;;;;22.44;43.20;101878.03;7287501;19;152710;-57
2022/05/21 11:42:25;;;;;;;;;;;;;;;22.42;42.69;101883.97;7286356;19;154235;-57
2022/05/21 11:44:59;;;;;;;;;;;;;;;22.45;42.07;101886.16;7288197;19;152003;-57
2022/05/21 11:47:56;;;;;;;;;;;;;;;22.40;39.17;101880.59;7285042;19;152668;-57
2022/05/21 11:50:25;;;;;;;;;;;;;;;22.25;39.23;101900.47;7284499;19;154276;-57
2022/05/21 11:53:04;;;;;;;;;;;;;;;22.20;39.44;101880.81;7287168;19;151803;-57
2022/05/21 11:55:52;;;;;;;;;;;;;;;22.17;38.86;101872.94;7286341;19;152844;-57
2022/05/21 11:58:24;;;;;;;;;;;;;;;22.13;39.15;101871.88;7292271;19;153204;-57
2022/05/21 12:00:50;;;;;;;;;;;;;;;22.10;39.49;101867.69;7287679;19;153308;-58
2022/05/21 12:03:19;;;;;;;;;;;;;;;22.06;39.13;101869.41;7283510;19;153363;-57
2022/05/21 12:05:49;;;;;;;;;;;;;;;22.04;38.59;101862.41;7286877;19;151714;-57
2022/05/21 12:08:22;;;;;;;;;;;;;;;22.01;39.24;101865.81;7285133;19;153649;-57
2022/05/21 12:11:08;;;;;;;;;;;;;;;22.00;39.86;101864.13;7283960;19;154030;-57
2022/05/21 12:13:35;;;;;;;;;;;;;;;22.00;40.05;101884.66;7285898;19;152212;-58
2022/05/21 12:16:17;;;;;;;;;;;;;;;22.00;39.95;101858.50;7286379;19;153142;-57
2022/05/21 12:18:48;;;;;;;;;;;;;;;21.99;41.08;101865.25;7285064;19;153292;-57
2022/05/21 12:21:28;;;;;;;;;;;;;;;22.00;40.22;101858.50;7291775;19;151623;-57
2022/05/21 12:23:58;;;;;;;;;;;;;;;21.98;41.06;101875.69;7284576;19;153859;-58
2022/05/21 12:26:27;;;;;;;;;;;;;;;22.01;40.78;101891.97;7284758;19;151907;-57
2022/05/21 12:28:56;;;;;;;;;;;;;;;21.99;41.14;101880.16;7285597;19;153683;-56
2022/05/21 12:31:33;;;;;;;;;;;;;;;22.00;40.61;101881.00;7283137;19;153228;-56
2022/05/21 12:34:12;;;;;;;;;;;;;;;22.00;41.01;101870.59;7286431;19;151941;-55
2022/05/21 12:36:43;;;;;;;;;;;;;;;22.06;41.11;101883.50;7287424;19;152612;-56
2022/05/21 12:39:13;;;;;;;;;;;;;;;22.06;40.80;101865.75;7285373;19;152612;-56
2022/05/21 12:41:48;;;;;;;;;;;;;;;22.10;40.00;101873.31;7281209;19;151738;-56
2022/05/21 12:44:33;;;;;;;;;;;;;;;22.02;39.73;101871.16;7292814;19;153444;-56
2022/05/21 12:47:00;;;;;;;;;;;;;;;22.03;39.93;101855.91;7283525;19;151792;-56
2022/05/21 12:49:27;;;;;;;;;;;;;;;22.02;40.17;101851.44;7285575;19;153121;-56
2022/05/21 12:51:54;;;;;;;;;;;;;;;22.02;40.94;101854.25;7282344;19;154317;-56
2022/05/21 12:54:22;;;;;;;;;;;;;;;22.05;40.53;101850.00;7284098;19;151897;-56
2022/05/21 12:56:48;;;;;;;;;;;;;;;22.02;40.62;101842.16;7285638;19;152681;-56
2022/05/21 12:59:22;;;;;;;;;;;;;;;21.86;39.08;101847.06;7282362;19;152847;-55
2022/05/21 13:01:55;;;;;;;;;;;;;;;21.74;38.66;101841.84;7286754;19;151825;-56
2022/05/21 13:04:31;;;;;;;;;;;;;;;21.76;38.86;101844.34;7284609;19;152870;-56
2022/05/21 13:07:06;;;;;;;;;;;;;;;21.62;38.46;101835.72;7291944;19;153231;-56
2022/05/21 13:09:35;;;;;;;;;;;;;;;21.55;38.40;101834.41;7287096;19;152659;-55
2022/05/21 13:12:02;;;;;;;;;;;;;;;21.43;38.04;101843.22;7280270;19;153884;-55
2022/05/21 13:14:38;;;;;;;;;;;;;;;21.48;38.38;101823.50;7284258;19;151702;-55